METAR Data
IDs: Format: Raw Decoded Include TAF

Data at: 1222 UTC 21 Oct 2018

KSOA 211215Z AUTO 36005KT 10SM CLR 11/09 A3038 RMK AO2
KSOA 211155Z AUTO 36004KT 10SM CLR 10/09 A3037 RMK AO2
KSOA 211135Z AUTO 00000KT 10SM FEW090 11/09 A3037 RMK AO2
KSOA 211115Z AUTO 00000KT 10SM BKN090 10/09 A3037 RMK AO2
KSOA 211055Z AUTO 00000KT 10SM BKN095 11/09 A3037 RMK AO2
KSOA 211035Z AUTO 00000KT 10SM CLR 11/08 A3037 RMK AO2
KSOA 211015Z AUTO 00000KT 10SM CLR 12/09 A3037 RMK AO2
KSOA 210955Z AUTO 00000KT 10SM CLR 12/09 A3036 RMK AO2
KSOA 210935Z AUTO 00000KT 10SM CLR 12/09 A3037 RMK AO2
KSOA 210915Z AUTO 00000KT 10SM CLR 12/09 A3037 RMK AO2
KSOA 210855Z AUTO 02006KT 10SM CLR 13/09 A3037 RMK AO2
KSOA 210835Z AUTO 03009KT 10SM CLR 13/08 A3036 RMK AO2
KSOA 210815Z AUTO 03008KT 10SM CLR 14/08 A3037 RMK AO2
KSOA 210755Z AUTO 04009KT 10SM CLR 14/09 A3036 RMK AO2
KSOA 210735Z AUTO 03007KT 10SM CLR 14/09 A3037 RMK AO2
KSOA 210715Z AUTO 04008KT 10SM CLR 15/09 A3037 RMK AO2
KSOA 210655Z AUTO 03009KT 10SM CLR 15/09 A3037 RMK AO2
KSOA 210635Z AUTO 03011KT 10SM FEW095 15/10 A3037 RMK AO2
KSOA 210615Z AUTO 02008KT 10SM FEW095 15/10 A3037 RMK AO2
KSOA 210555Z AUTO 03008KT 10SM FEW095 16/10 A3037 RMK AO2
KSOA 210535Z AUTO 03011KT 10SM BKN095 16/11 A3036 RMK AO2
KSOA 210515Z AUTO 03009KT 10SM OVC095 16/12 A3037 RMK AO2
KSOA 210455Z AUTO 02009KT 10SM OVC095 16/12 A3038 RMK AO2
KSOA 210435Z AUTO 02009KT 10SM BKN095 16/13 A3038 RMK AO2
KSOA 210415Z AUTO 01008KT 10SM BKN095 16/12 A3038 RMK AO2
KSOA 210355Z AUTO 01007KT 10SM BKN095 16/12 A3038 RMK AO2
KSOA 210335Z AUTO 01008KT 10SM FEW095 16/12 A3037 RMK AO2
KSOA 210315Z AUTO 02007KT 10SM BKN095 17/12 A3036 RMK AO2
KSOA 210255Z AUTO 02007KT 10SM BKN095 16/13 A3036 RMK AO2
KSOA 210235Z AUTO 03004KT 10SM SCT095 16/13 A3036 RMK AO2
KSOA 210215Z AUTO 03005KT 10SM FEW095 17/13 A3034 RMK AO2
KSOA 210155Z AUTO 02005KT 10SM FEW095 17/13 A3034 RMK AO2
KSOA 210135Z AUTO 01006G11KT 10SM CLR 17/13 A3034 RMK AO2
KSOA 210115Z AUTO 03008KT 10SM FEW100 18/13 A3033 RMK AO2
KSOA 210055Z AUTO 02008KT 10SM FEW100 18/13 A3032 RMK AO2
KSOA 210035Z AUTO 02006KT 10SM FEW100 17/13 A3032 RMK AO2
KSOA 210015Z AUTO 02006KT 10SM FEW100 18/13 A3031 RMK AO2
KSOA 202355Z AUTO 01006KT 10SM FEW090 18/13 A3031 RMK AO2
KSOA 202335Z AUTO 01007KT 10SM FEW090 18/13 A3030 RMK AO2
KSOA 202315Z AUTO 01008G13KT 10SM BKN090 18/13 A3030 RMK AO2
KSOA 202255Z AUTO 01008KT 10SM OVC090 18/14 A3030 RMK AO2
KSOA 202235Z AUTO 01007KT 10SM BKN090 18/14 A3030 RMK AO2
KSOA 202215Z AUTO 36008G14KT 10SM BKN090 18/14 A3029 RMK AO2
KSOA 202155Z AUTO 36008KT 10SM FEW090 18/14 A3030 RMK AO2
KSOA 202135Z AUTO 36009KT 10SM CLR 19/15 A3029 RMK AO2
KSOA 202115Z AUTO 01009KT 10SM CLR 19/14 A3029 RMK AO2
KSOA 202055Z AUTO 36008KT 10SM FEW090 19/14 A3029 RMK AO2
KSOA 202035Z AUTO 36007KT 10SM SCT090 19/14 A3029 RMK AO2
KSOA 202015Z AUTO 35008KT 10SM FEW043 FEW049 FEW055 19/14 A3029 RMK AO2
KSOA 201955Z AUTO 35009KT 10SM FEW041 SCT046 BKN055 19/14 A3028 RMK AO2
KSOA 201935Z AUTO 01007KT 10SM FEW075 18/15 A3028 RMK AO2
KSOA 201915Z AUTO 01007KT 10SM FEW075 18/14 A3029 RMK AO2
KSOA 201855Z AUTO 02010KT 10SM FEW070 18/14 A3029 RMK AO2
KSOA 201835Z AUTO 01011KT 10SM FEW046 SCT075 18/15 A3029 RMK AO2
KSOA 201815Z AUTO 02011KT 10SM FEW016 FEW048 FEW085 19/15 A3029 RMK AO2
KSOA 201755Z AUTO 02011KT 10SM FEW060 SCT085 SCT110 18/15 A3030 RMK AO2
KSOA 201735Z AUTO 02008G13KT 10SM BKN060 BKN070 BKN100 18/15 A3031 RMK AO2
KSOA 201715Z AUTO 03008KT 10SM FEW050 SCT060 SCT075 18/15 A3031 RMK AO2
KSOA 201655Z AUTO 03007KT 10SM BKN050 18/15 A3031 RMK AO2
KSOA 201635Z AUTO 03006G11KT 10SM FEW050 18/15 A3031 RMK AO2
KSOA 201615Z AUTO 02006KT 10SM FEW050 17/15 A3032 RMK AO2
KSOA 201555Z AUTO 02007KT 10SM FEW055 FEW100 17/15 A3031 RMK AO2
KSOA 201535Z AUTO 03009KT 10SM FEW100 17/15 A3031 RMK AO2
KSOA 201515Z AUTO 03007KT 10SM CLR 17/16 A3030 RMK AO2
KSOA 201455Z AUTO 01007KT 10SM FEW035 FEW042 FEW048 16/16 A3030 RMK AO2
KSOA 201435Z AUTO 00000KT 10SM FEW034 FEW039 SCT048 16/16 A3030 RMK AO2
KSOA 201415Z AUTO 00000KT 6SM -RA SCT040 BKN055 16/16 A3029 RMK AO2
KSOA 201355Z AUTO 00000KT 10SM OVC039 16/15 A3029 RMK AO2
KSOA 201335Z AUTO 00000KT 10SM OVC039 15/15 A3028 RMK AO2
KSOA 201315Z AUTO 00000KT 10SM OVC037 15/15 A3027 RMK AO2
KSOA 201255Z AUTO 00000KT 10SM OVC038 15/15 A3026 RMK AO2
KSOA 201235Z AUTO 36004KT 10SM OVC037 15/15 A3026 RMK AO2
KSOA 201215Z AUTO 00000KT 10SM OVC037 15/15 A3026 RMK AO2
KSOA 201155Z AUTO 00000KT 6SM -RA OVC036 15/15 A3025 RMK AO2
KSOA 201135Z AUTO 00000KT 10SM BKN035 BKN047 15/15 A3025 RMK AO2
KSOA 201115Z AUTO 00000KT 10SM SCT032 BKN047 15/15 A3024 RMK AO2
KSOA 201055Z AUTO 00000KT 10SM OVC031 15/15 A3024 RMK AO2
KSOA 201035Z AUTO 00000KT 10SM OVC031 15/15 A3023 RMK AO2
KSOA 201015Z AUTO 00000KT 10SM OVC031 15/15 A3023 RMK AO2
KSOA 200955Z AUTO 00000KT 10SM OVC031 15/15 A3023 RMK AO2
KSOA 200935Z AUTO 00000KT 10SM BKN031 15/15 A3023 RMK AO2
KSOA 200915Z AUTO 00000KT 10SM BKN028 BKN050 14/14 A3022 RMK AO2
KSOA 200855Z AUTO 00000KT 8SM -RA OVC026 15/15 A3023 RMK AO2
KSOA 200835Z AUTO 00000KT 10SM BKN026 BKN038 OVC055 15/15 A3025 RMK AO2
KSOA 200815Z AUTO 00000KT 10SM SCT035 BKN055 15/15 A3025 RMK AO2
KSOA 200755Z AUTO 00000KT 10SM FEW034 SCT055 SCT100 15/15 A3025 RMK AO2
KSOA 200735Z AUTO 00000KT 10SM -RA CLR 15/15 A3024 RMK AO2
KSOA 200715Z AUTO 00000KT 10SM CLR 14/14 A3024 RMK AO2
KSOA 200655Z AUTO 00000KT 10SM CLR 14/14 A3023 RMK AO2
KSOA 200635Z AUTO 00000KT 10SM CLR 15/15 A3023 RMK AO2
KSOA 200615Z AUTO 00000KT 10SM CLR 15/15 A3024 RMK AO2
KSOA 200555Z AUTO 00000KT 10SM -RA CLR 15/15 A3023 RMK AO2
KSOA 200535Z AUTO 00000KT 10SM FEW095 14/14 A3023 RMK AO2
KSOA 200515Z AUTO 00000KT 10SM SCT100 14/14 A3024 RMK AO2
KSOA 200455Z AUTO 00000KT 10SM CLR 15/15 A3024 RMK AO2
KSOA 200435Z AUTO 00000KT 10SM FEW032 15/15 A3024 RMK AO2
KSOA 200415Z AUTO 00000KT 10SM FEW085 15/15 A3024 RMK AO2
KSOA 200355Z AUTO 00000KT 10SM SCT005 SCT090 15/15 A3025 RMK AO2
KSOA 200335Z AUTO 00000KT 10SM BKN005 BKN100 15/15 A3025 RMK AO2
KSOA 200315Z AUTO 00000KT 10SM OVC005 15/15 A3025 RMK AO2
KSOA 200255Z AUTO 00000KT 10SM OVC006 15/15 A3025 RMK AO2
KSOA 200235Z AUTO 00000KT 10SM OVC006 15/15 A3025 RMK AO2
KSOA 200215Z AUTO 00000KT 10SM OVC006 15/15 A3025 RMK AO2
KSOA 200155Z AUTO 03004KT 10SM OVC007 15/15 A3025 RMK AO2
KSOA 200135Z AUTO 36005KT 10SM OVC006 15/15 A3024 RMK AO2
KSOA 200115Z AUTO 02004KT 10SM BKN006 OVC025 15/15 A3023 RMK AO2
KSOA 200055Z AUTO 02004KT 10SM SCT008 OVC025 15/15 A3023 RMK AO2
KSOA 200035Z AUTO 02004KT 10SM OVC007 15/15 A3022 RMK AO2